Portada
METAR-TAF:

METAR-TAF

Aeropuertos :

Port Hawkesbury, Nueva Escocia, Canadá

latitud: 45-40N, longitud: 061-23W, altitud: 114 m

Observación

El informe se hizo hace 23 minutos, a las 05:28 UTC
Viento 8 kt del oeste-suroeste
Temperatura 13°C
Humedad 94%
Presión 999 hPa
Visibilidad: 8.0 km
Escasas nubes a una altura de 700 ft
Nubes dispersas a una altura de 1100 ft
Nubes dispersas a una altura de 3000 ft
Cielo cubierto a una altura de 3700 ft
lluvia ligera, neblina

METAR: CYPD 210528Z AUTO 25008KT 5SM -RA BR FEW007 SCT011 SCT030 OVC037 13/12 A2949 RMK SLP990 DENSITY ALT 600FT

Hora: 02:51 (05:51 UTC)


TAF: falta

Observaciones y pronósticos meteorológicos de más de 4000 aeropuertos (mensajes METAR y TAF).

Los puntos amarillos y rojos representan las estaciones disponibles.

Ponga el ratón en el punto deseado para ver el nombre de la estación.

Haga clic para ver las observaciones y los pronósticos meteorológicos.

Para cambiar el mapa : haga clic en los botones verdes con una cruz de color negro para hacer un zoom, en el botón verde con un guión para alejar o en las flechas verdes para mapas adyacentes.


METAR-TAF: